createdAt,value
2023-02-17T00:01:40.550Z,101698.84
2023-02-17T00:04:08.803Z,101692.69
2023-02-17T00:06:37.146Z,101695.31
2023-02-17T00:09:05.588Z,101698.81
2023-02-17T00:11:34.071Z,101695.31
2023-02-17T00:14:02.761Z,101695.31
2023-02-17T00:16:31.198Z,101695.31
2023-02-17T00:19:02.630Z,101692.69
2023-02-17T00:21:33.520Z,101689.19
2023-02-17T00:24:02.172Z,101687.47
2023-02-17T00:26:30.652Z,101680.50
2023-02-17T00:29:00.298Z,101678.75
2023-02-17T00:31:28.822Z,101668.28
2023-02-17T00:33:57.669Z,101662.16
2023-02-17T00:36:28.676Z,101660.38
2023-02-17T00:38:58.606Z,101651.66
2023-02-17T00:41:28.333Z,101642.03
2023-02-17T00:43:57.095Z,101650.75
2023-02-17T00:46:26.065Z,101647.25
2023-02-17T00:48:54.861Z,101642.03
2023-02-17T00:51:23.753Z,101649.03
2023-02-17T00:53:53.700Z,101658.66
2023-02-17T00:56:22.005Z,101656.91
2023-02-17T00:58:50.313Z,101649.03
2023-02-17T01:01:18.582Z,101662.19
2023-02-17T01:03:47.067Z,101650.78
2023-02-17T01:06:24.325Z,101655.19
2023-02-17T01:08:54.468Z,101656.09
2023-02-17T01:11:25.742Z,101662.19
2023-02-17T01:13:54.803Z,101656.94
2023-02-17T01:16:27.749Z,101642.09
2023-02-17T01:18:57.175Z,101654.31
2023-02-17T01:21:28.210Z,101648.25
2023-02-17T01:24:00.705Z,101648.25
2023-02-17T01:26:31.279Z,101636.00
2023-02-17T01:29:00.288Z,101640.38
2023-02-17T01:31:29.844Z,101632.50
2023-02-17T01:34:01.305Z,101629.00
2023-02-17T01:36:30.045Z,101628.13
2023-02-17T01:39:00.346Z,101617.69
2023-02-17T01:41:30.523Z,101615.94
2023-02-17T01:44:15.955Z,101615.94
2023-02-17T01:46:46.471Z,101622.06
2023-02-17T01:49:25.536Z,101628.16
2023-02-17T01:51:58.915Z,101626.41
2023-02-17T01:54:31.561Z,101629.94
2023-02-17T01:57:01.908Z,101629.94
2023-02-17T01:59:31.508Z,101623.88
2023-02-17T02:02:05.370Z,101609.88
2023-02-17T02:04:38.015Z,101593.31
2023-02-17T02:07:11.778Z,101605.50
2023-02-17T02:09:47.457Z,101599.38
2023-02-17T02:12:22.765Z,101581.84
2023-02-17T02:14:52.435Z,101588.88
2023-02-17T02:17:33.029Z,101587.09
2023-02-17T02:20:41.432Z,101590.59
2023-02-17T02:23:55.744Z,101585.31
2023-02-17T02:27:16.883Z,101589.69
2023-02-17T02:30:29.777Z,101570.47
2023-02-17T02:33:09.628Z,101555.59
2023-02-17T02:35:51.698Z,101559.09
2023-02-17T02:38:26.796Z,101558.22
2023-02-17T02:41:03.539Z,101557.34
2023-02-17T02:43:32.843Z,101564.38
2023-02-17T02:46:01.368Z,101553.00
2023-02-17T02:48:31.716Z,101564.41
2023-02-17T02:51:30.439Z,101562.59
2023-02-17T02:54:24.170Z,101549.50
2023-02-17T02:57:11.298Z,101535.50
2023-02-17T02:59:54.152Z,101525.91
2023-02-17T03:02:31.181Z,101525.91
2023-02-17T03:05:07.317Z,101518.91
2023-02-17T03:07:39.080Z,101525.91
2023-02-17T03:10:08.725Z,101506.69
2023-02-17T03:12:39.435Z,101506.69
2023-02-17T03:15:16.361Z,101487.47
2023-02-17T03:17:44.796Z,101499.69
2023-02-17T03:20:16.023Z,101483.06
2023-02-17T03:22:48.928Z,101482.22
2023-02-17T03:25:18.273Z,101482.22
2023-02-17T03:27:46.597Z,101475.25
2023-02-17T03:30:15.298Z,101451.66
2023-02-17T03:32:44.141Z,101457.72
2023-02-17T03:35:14.212Z,101459.50
2023-02-17T03:37:42.640Z,101451.63
2023-02-17T03:40:11.929Z,101452.50
2023-02-17T03:42:40.217Z,101452.50
2023-02-17T03:45:09.412Z,101469.97
2023-02-17T03:47:37.783Z,101445.50
2023-02-17T03:50:07.948Z,101468.22
2023-02-17T03:52:38.336Z,101460.38
2023-02-17T03:55:07.755Z,101467.34
2023-02-17T03:57:36.090Z,101452.44
2023-02-17T04:00:05.425Z,101448.06
2023-02-17T04:02:33.842Z,101441.09
2023-02-17T04:05:02.080Z,101430.56
2023-02-17T04:07:31.614Z,101434.94
2023-02-17T04:10:02.666Z,101436.66
2023-02-17T04:12:32.194Z,101440.19
2023-02-17T04:15:00.494Z,101432.31
2023-02-17T04:17:28.885Z,101436.72
2023-02-17T04:19:57.186Z,101433.28
2023-02-17T04:22:25.480Z,101435.91
2023-02-17T04:24:53.869Z,101433.31
2023-02-17T04:27:23.575Z,101417.59
2023-02-17T04:29:53.063Z,101417.66
2023-02-17T04:32:21.338Z,101425.56
2023-02-17T04:34:49.620Z,101436.03
2023-02-17T04:37:17.979Z,101429.94
2023-02-17T04:39:46.342Z,101433.47
2023-02-17T04:42:14.640Z,101433.47
2023-02-17T04:44:44.308Z,101416.88
2023-02-17T04:47:13.098Z,101413.44
2023-02-17T04:49:41.375Z,101413.38
2023-02-17T04:52:09.803Z,101412.53
2023-02-17T04:54:38.284Z,101402.03
2023-02-17T04:57:06.668Z,101405.53
2023-02-17T04:59:34.977Z,101405.53
2023-02-17T05:02:05.150Z,101414.28
2023-02-17T05:04:34.375Z,101407.25
2023-02-17T05:07:02.748Z,101407.25
2023-02-17T05:09:31.177Z,101407.25
2023-02-17T05:11:59.471Z,101393.25
2023-02-17T05:14:28.127Z,101390.56
2023-02-17T05:16:56.509Z,101396.66
2023-02-17T05:19:26.260Z,101400.13
2023-02-17T05:21:54.526Z,101414.03
2023-02-17T05:24:22.942Z,101410.50
2023-02-17T05:26:51.183Z,101411.34
2023-02-17T05:29:19.479Z,101419.19
2023-02-17T05:31:47.838Z,101426.09
2023-02-17T05:34:16.252Z,101437.34
2023-02-17T05:36:45.864Z,101411.91
2023-02-17T05:39:14.176Z,101417.09
2023-02-17T05:41:42.537Z,101396.97
2023-02-17T05:44:10.832Z,101396.00
2023-02-17T05:46:39.151Z,101389.91
2023-02-17T05:49:07.649Z,101383.75
2023-02-17T05:51:36.030Z,101387.25
2023-02-17T05:54:06.139Z,101368.88
2023-02-17T05:56:34.692Z,101374.97
2023-02-17T05:59:03.016Z,101360.97
2023-02-17T06:01:31.555Z,101356.63
2023-02-17T06:03:59.837Z,101349.59
2023-02-17T06:06:28.245Z,101360.94
2023-02-17T06:08:56.498Z,101362.69
2023-02-17T06:11:26.137Z,101363.53
2023-02-17T06:13:54.440Z,101360.00
2023-02-17T06:16:22.956Z,101357.44
2023-02-17T06:18:51.278Z,101341.72
2023-02-17T06:21:19.609Z,101357.44
2023-02-17T06:23:48.251Z,101357.44
2023-02-17T06:26:18.582Z,101340.00
2023-02-17T06:28:48.693Z,101327.81
2023-02-17T06:31:17.212Z,101345.25
2023-02-17T06:33:45.573Z,101350.50
2023-02-17T06:36:13.874Z,101346.97
2023-02-17T06:38:42.137Z,101352.28
2023-02-17T06:41:10.465Z,101334.84
2023-02-17T06:43:38.734Z,101348.81
2023-02-17T06:46:08.999Z,101340.94
2023-02-17T06:48:37.583Z,101346.19
2023-02-17T06:51:06.645Z,101346.25
2023-02-17T06:53:34.970Z,101337.50
2023-02-17T06:56:03.475Z,101343.66
2023-02-17T06:58:32.763Z,101350.66
2023-02-17T07:01:01.113Z,101361.16
2023-02-17T07:03:32.456Z,101357.66
2023-02-17T07:06:01.286Z,101364.69
2023-02-17T07:08:29.692Z,101350.69
2023-02-17T07:10:57.969Z,101349.00
2023-02-17T07:13:26.372Z,101334.13
2023-02-17T07:15:54.727Z,101328.97
2023-02-17T07:18:23.029Z,101328.97
2023-02-17T07:20:52.823Z,101313.28
2023-02-17T07:23:21.191Z,101316.78
2023-02-17T07:25:49.489Z,101310.72
2023-02-17T07:28:18.073Z,101306.38
2023-02-17T07:30:46.595Z,101316.88
2023-02-17T07:33:15.170Z,101313.41
2023-02-17T07:35:44.949Z,101302.06
2023-02-17T07:38:15.147Z,101311.69
2023-02-17T07:40:43.411Z,101290.75
2023-02-17T07:43:11.692Z,101290.78
2023-02-17T07:45:40.103Z,101291.69
2023-02-17T07:48:08.400Z,101307.41
2023-02-17T07:50:36.711Z,101303.94
2023-02-17T07:53:05.025Z,101323.16
2023-02-17T07:55:34.649Z,101303.97
2023-02-17T07:58:02.947Z,101304.00
2023-02-17T08:00:31.238Z,101292.66
2023-02-17T08:02:59.485Z,101291.81
2023-02-17T08:05:27.935Z,101304.03
2023-02-17T08:08:10.088Z,101309.34
2023-02-17T08:10:58.503Z,101299.72
2023-02-17T08:13:28.507Z,101306.78
2023-02-17T08:15:57.260Z,101291.06
2023-02-17T08:18:25.896Z,101271.84
2023-02-17T08:20:54.341Z,101271.84
2023-02-17T08:23:22.949Z,101276.25
2023-02-17T08:25:52.803Z,101293.72
2023-02-17T08:28:21.687Z,101277.97
2023-02-17T08:30:50.231Z,101267.53
2023-02-17T08:33:19.569Z,101270.13
2023-02-17T08:35:48.017Z,101271.03
2023-02-17T08:38:16.796Z,101291.16
2023-02-17T08:40:45.041Z,101278.94
2023-02-17T08:43:14.776Z,101272.81
2023-02-17T08:45:43.112Z,101297.31
2023-02-17T08:48:11.353Z,101285.09
2023-02-17T08:50:39.575Z,101278.13
2023-02-17T08:53:08.040Z,101264.16
2023-02-17T08:55:48.606Z,101279.91
2023-02-17T08:58:19.326Z,101241.47
2023-02-17T09:00:47.649Z,101257.22
2023-02-17T09:03:16.067Z,101262.50
2023-02-17T09:05:44.462Z,101253.78
2023-02-17T09:08:12.708Z,101277.50
2023-02-17T09:10:41.258Z,101275.78
2023-02-17T09:13:09.607Z,101267.06
2023-02-17T09:15:40.165Z,101267.09
2023-02-17T09:18:08.473Z,101248.75
2023-02-17T09:20:37.785Z,101261.91
2023-02-17T09:23:06.494Z,101252.28
2023-02-17T09:25:35.035Z,101252.28
2023-02-17T09:28:03.365Z,101254.03
2023-02-17T09:30:32.153Z,101269.81
2023-02-17T09:33:02.223Z,101270.69
2023-02-17T09:35:31.528Z,101261.94
2023-02-17T09:38:00.248Z,101257.56
2023-02-17T09:40:40.385Z,101261.97
2023-02-17T09:43:16.764Z,101270.69
2023-02-17T09:45:51.248Z,101265.47
2023-02-17T09:48:24.907Z,101269.84
2023-02-17T09:50:58.053Z,101255.81
2023-02-17T09:53:33.309Z,101257.56
2023-02-17T09:56:07.367Z,101246.19
2023-02-17T09:58:40.404Z,101261.09
2023-02-17T10:01:12.546Z,101274.22
2023-02-17T10:03:46.377Z,101289.09
2023-02-17T10:06:17.813Z,101279.47
2023-02-17T10:08:52.677Z,101283.84
2023-02-17T10:11:31.724Z,101278.59
2023-02-17T10:14:09.820Z,101315.38
2023-02-17T10:16:44.368Z,101314.53
2023-02-17T10:19:20.523Z,101303.13
2023-02-17T10:22:00.054Z,101304.88
2023-02-17T10:24:29.837Z,101303.97
2023-02-17T10:27:23.465Z,101325.91
2023-02-17T10:30:10.175Z,101314.50
2023-02-17T10:32:59.748Z,101319.75
2023-02-17T10:35:50.352Z,101308.38
2023-02-17T10:38:26.109Z,101321.50
2023-02-17T10:40:56.842Z,101309.22
2023-02-17T10:43:30.038Z,101313.63
2023-02-17T10:46:01.466Z,101338.16
2023-02-17T10:48:38.426Z,101337.28
2023-02-17T10:51:08.827Z,101326.78
2023-02-17T10:53:42.063Z,101332.91
2023-02-17T10:56:15.803Z,101320.66
2023-02-17T10:58:53.121Z,101344.31
2023-02-17T11:01:23.301Z,101330.28
2023-02-17T11:04:02.644Z,101344.31
2023-02-17T11:06:33.529Z,101335.56
2023-02-17T11:09:05.406Z,101332.94
2023-02-17T11:11:37.249Z,101333.81
2023-02-17T11:14:20.741Z,101345.22
2023-02-17T11:16:59.360Z,101325.03
2023-02-17T11:19:30.779Z,101325.06
2023-02-17T11:22:02.476Z,101328.56
2023-02-17T11:24:35.185Z,101356.59
2023-02-17T11:27:09.010Z,101359.22
2023-02-17T11:29:37.680Z,101333.78
2023-02-17T11:32:09.164Z,101346.06
2023-02-17T11:34:39.767Z,101337.31
2023-02-17T11:37:23.794Z,101341.69
2023-02-17T11:39:54.499Z,101340.84
2023-02-17T11:42:25.074Z,101337.31
2023-02-17T11:44:55.477Z,101339.06
2023-02-17T11:47:35.123Z,101339.09
2023-02-17T11:50:40.902Z,101325.97
2023-02-17T11:53:35.294Z,101332.09
2023-02-17T11:56:15.045Z,101316.34
2023-02-17T11:59:05.684Z,101330.34
2023-02-17T12:01:55.769Z,101327.72
2023-02-17T12:04:28.086Z,101345.28
2023-02-17T12:07:16.179Z,101364.56
2023-02-17T12:09:56.617Z,101339.13
2023-02-17T12:12:36.501Z,101329.50
2023-02-17T12:15:26.363Z,101336.50
2023-02-17T12:18:08.051Z,101342.63
2023-02-17T12:20:49.915Z,101343.53
2023-02-17T12:23:42.523Z,101348.78
2023-02-17T12:26:22.946Z,101340.91
2023-02-17T12:29:06.357Z,101340.91
2023-02-17T12:31:59.520Z,101355.81
2023-02-17T12:34:36.956Z,101334.78
2023-02-17T12:37:08.023Z,101341.81
2023-02-17T12:39:43.274Z,101340.03
2023-02-17T12:42:19.515Z,101355.84
2023-02-17T12:44:52.574Z,101365.47
2023-02-17T12:47:29.558Z,101361.97
2023-02-17T12:50:05.503Z,101347.03
2023-02-17T12:52:40.683Z,101360.19
2023-02-17T12:55:20.561Z,101377.75
2023-02-17T12:57:58.117Z,101375.13
2023-02-17T13:00:33.772Z,101354.06
2023-02-17T13:03:04.660Z,101367.19
2023-02-17T13:05:41.584Z,101383.88
2023-02-17T13:08:17.312Z,101359.28
2023-02-17T13:10:45.850Z,101379.47
2023-02-17T13:13:29.202Z,101346.06
2023-02-17T13:16:07.446Z,101373.28
2023-02-17T13:18:38.174Z,101384.69
2023-02-17T13:21:28.571Z,101361.00
2023-02-17T13:24:02.973Z,101364.50
2023-02-17T13:26:33.899Z,101359.25
2023-02-17T13:29:23.298Z,101362.75
2023-02-17T13:31:55.317Z,101374.16
2023-02-17T13:34:33.536Z,101379.38
2023-02-17T13:37:05.604Z,101391.59
2023-02-17T13:39:39.271Z,101411.75
2023-02-17T13:42:39.027Z,101381.91
2023-02-17T13:45:21.543Z,101390.69
2023-02-17T13:47:52.072Z,101388.91
2023-02-17T13:50:35.132Z,101388.88
2023-02-17T13:53:25.304Z,101396.81
2023-02-17T13:55:54.679Z,101388.91
2023-02-17T13:58:29.158Z,101401.22
2023-02-17T14:01:01.428Z,101395.94
2023-02-17T14:03:32.288Z,101389.75
2023-02-17T14:06:02.721Z,101396.75
2023-02-17T14:08:37.474Z,101431.84
2023-02-17T14:11:11.704Z,101415.97
2023-02-17T14:13:44.559Z,101414.16
2023-02-17T14:16:31.966Z,101413.22
2023-02-17T14:19:05.619Z,101420.31
2023-02-17T14:21:35.446Z,101404.50
2023-02-17T14:24:04.236Z,101462.66
2023-02-17T14:26:38.571Z,101419.66
2023-02-17T14:29:12.691Z,101433.78
2023-02-17T14:31:44.968Z,101447.00
2023-02-17T14:34:26.688Z,101457.59
2023-02-17T14:36:55.498Z,101441.75
2023-02-17T14:39:24.108Z,101452.31
2023-02-17T14:41:52.425Z,101454.97
2023-02-17T14:44:20.782Z,101469.00
2023-02-17T14:46:50.531Z,101468.13
2023-02-17T14:49:18.930Z,101475.19
2023-02-17T14:51:47.277Z,101466.38
2023-02-17T14:54:17.758Z,101469.00
2023-02-17T14:56:50.983Z,101485.69
2023-02-17T14:59:19.250Z,101500.63
2023-02-17T15:01:49.062Z,101489.19
2023-02-17T15:04:17.459Z,101492.72
2023-02-17T15:06:49.426Z,101495.34
2023-02-17T15:09:22.161Z,101494.47
2023-02-17T15:11:50.764Z,101497.13
2023-02-17T15:14:22.027Z,101513.78
2023-02-17T15:16:51.730Z,101538.38
2023-02-17T15:19:20.290Z,101539.25
2023-02-17T15:21:51.255Z,101547.13
2023-02-17T15:24:27.263Z,101552.41
2023-02-17T15:26:57.771Z,101541.81
2023-02-17T15:29:27.518Z,101568.13
2023-02-17T15:31:59.265Z,101582.09
2023-02-17T15:34:31.954Z,101608.38
2023-02-17T15:37:02.670Z,101575.84
2023-02-17T15:39:31.057Z,101600.34
2023-02-17T15:42:06.196Z,101596.78
2023-02-17T15:44:43.198Z,101625.66
2023-02-17T15:47:17.733Z,101609.78
2023-02-17T15:49:46.464Z,101630.72
2023-02-17T15:52:16.143Z,101626.28
2023-02-17T15:54:45.232Z,101639.34
2023-02-17T15:57:23.624Z,101625.25
2023-02-17T15:59:54.875Z,101640.94
2023-02-17T16:02:26.529Z,101640.88
2023-02-17T16:04:54.813Z,101689.84
2023-02-17T16:07:23.137Z,101680.19
2023-02-17T16:09:51.478Z,101667.81
2023-02-17T16:12:27.152Z,101682.59
2023-02-17T16:14:56.708Z,101658.91
2023-02-17T16:17:27.680Z,101699.06
2023-02-17T16:19:55.985Z,101701.63
2023-02-17T16:22:24.292Z,101715.56
2023-02-17T16:24:52.606Z,101719.06
2023-02-17T16:27:21.010Z,101704.16
2023-02-17T16:29:49.358Z,101726.81
2023-02-17T16:32:17.824Z,101715.38
2023-02-17T16:34:48.363Z,101717.91
2023-02-17T16:37:18.783Z,101734.41
2023-02-17T16:39:48.612Z,101739.53
2023-02-17T16:42:17.390Z,101742.09
2023-02-17T16:44:45.816Z,101742.84
2023-02-17T16:47:22.478Z,101756.69
2023-02-17T16:49:52.783Z,101760.91
2023-02-17T16:52:26.541Z,101754.66
2023-02-17T16:54:55.124Z,101785.94
2023-02-17T16:57:23.988Z,101770.91
2023-02-17T16:59:52.435Z,101790.00
2023-02-17T17:02:21.900Z,101789.03
2023-02-17T17:04:51.786Z,101799.41
2023-02-17T17:07:20.265Z,101794.94
2023-02-17T17:10:12.549Z,101817.56
2023-02-17T17:12:37.137Z,101826.25
2023-02-17T17:15:06.066Z,101819.06
2023-02-17T17:17:41.323Z,101837.34
2023-02-17T17:20:16.818Z,101838.13
2023-02-17T17:22:46.783Z,101839.78
2023-02-17T17:25:15.831Z,101842.34
2023-02-17T17:27:46.058Z,101859.69
2023-02-17T17:30:19.744Z,101867.50
2023-02-17T17:32:48.377Z,101865.66
2023-02-17T17:35:18.489Z,101871.66
2023-02-17T17:37:47.043Z,101878.53
2023-02-17T17:40:20.247Z,101878.50
2023-02-17T17:42:48.838Z,101883.63
2023-02-17T17:45:17.605Z,101875.75
2023-02-17T17:47:46.915Z,101882.59
2023-02-17T17:50:22.455Z,101887.72
2023-02-17T17:52:51.123Z,101891.97
2023-02-17T17:55:19.558Z,101903.25
2023-02-17T17:57:48.459Z,101904.09
2023-02-17T18:00:19.274Z,101904.88
2023-02-17T18:02:47.600Z,101927.47
2023-02-17T18:05:16.396Z,101927.47
2023-02-17T18:07:50.074Z,101921.31
2023-02-17T18:10:18.833Z,101923.88
2023-02-17T18:12:48.736Z,101916.78
2023-02-17T18:15:18.591Z,101934.22
2023-02-17T18:17:49.047Z,101935.91
2023-02-17T18:20:17.355Z,101940.22
2023-02-17T18:22:47.107Z,101931.38
2023-02-17T18:25:15.345Z,101930.47
2023-02-17T18:27:47.155Z,101930.44
2023-02-17T18:30:21.380Z,101931.22
2023-02-17T18:32:49.960Z,101939.84
2023-02-17T18:35:19.238Z,101944.97
2023-02-17T18:37:49.231Z,101949.28
2023-02-17T18:40:21.520Z,101959.72
2023-02-17T18:42:49.844Z,101953.59
2023-02-17T18:45:18.336Z,101960.44
2023-02-17T18:47:46.640Z,101942.06
2023-02-17T18:50:16.272Z,101955.94
2023-02-17T18:52:45.563Z,101947.25
2023-02-17T18:55:16.054Z,101955.03
2023-02-17T18:57:45.378Z,101960.22
2023-02-17T19:00:16.739Z,101958.44
2023-02-17T19:02:45.380Z,101960.00
2023-02-17T19:05:14.407Z,101968.63
2023-02-17T19:07:43.103Z,101965.91
2023-02-17T19:10:14.249Z,101975.34
2023-02-17T19:12:42.631Z,101985.75
2023-02-17T19:15:11.263Z,101985.63
2023-02-17T19:17:39.637Z,101983.88
2023-02-17T19:20:09.704Z,101974.25
2023-02-17T19:22:38.148Z,101982.13
2023-02-17T19:25:08.306Z,101983.88
2023-02-17T19:27:41.646Z,101978.66
2023-02-17T19:30:12.701Z,101992.53
2023-02-17T19:32:41.056Z,101987.22
2023-02-17T19:35:11.672Z,101999.38
2023-02-17T19:37:40.158Z,102012.44
2023-02-17T19:40:09.878Z,102023.63
2023-02-17T19:42:40.423Z,102014.91
2023-02-17T19:45:09.280Z,102014.84
2023-02-17T19:47:37.583Z,102017.44
2023-02-17T19:50:07.492Z,102019.19
2023-02-17T19:52:37.972Z,102021.81
2023-02-17T19:55:07.082Z,102019.13
2023-02-17T19:57:35.354Z,102011.16
2023-02-17T20:00:07.450Z,102020.59
2023-02-17T20:02:35.922Z,102028.38
2023-02-17T20:05:06.014Z,102023.16
2023-02-17T20:07:34.568Z,102017.94
2023-02-17T20:10:02.911Z,102014.50
2023-02-17T20:12:31.432Z,102013.56
2023-02-17T20:14:59.913Z,102007.41
2023-02-17T20:17:29.619Z,102015.19
2023-02-17T20:19:57.936Z,102019.53
2023-02-17T20:22:26.354Z,102026.53
2023-02-17T20:24:54.689Z,102010.91
2023-02-17T20:27:23.083Z,102010.16
2023-02-17T20:29:51.296Z,102003.25
2023-02-17T20:32:19.879Z,101989.34
2023-02-17T20:34:52.533Z,101991.94
2023-02-17T20:37:21.448Z,101996.22
2023-02-17T20:39:49.816Z,101993.59
2023-02-17T20:42:18.105Z,102011.00
2023-02-17T20:44:48.902Z,102014.41
2023-02-17T20:47:17.254Z,102024.75
2023-02-17T20:49:45.605Z,102032.50
2023-02-17T20:52:15.301Z,102033.25
2023-02-17T20:54:44.599Z,102032.31
2023-02-17T20:57:16.240Z,102024.38
2023-02-17T20:59:44.582Z,102021.75
2023-02-17T21:02:13.294Z,102029.56
2023-02-17T21:04:41.620Z,102015.59
2023-02-17T21:07:11.411Z,102022.56
2023-02-17T21:09:41.176Z,102020.88
2023-02-17T21:12:09.696Z,102027.97
2023-02-17T21:14:38.077Z,102029.88
2023-02-17T21:17:06.515Z,102031.75
2023-02-17T21:19:34.821Z,102036.22
2023-02-17T21:22:03.134Z,102037.94
2023-02-17T21:24:31.580Z,102031.78
2023-02-17T21:27:01.388Z,102033.44
2023-02-17T21:29:29.774Z,102028.94
2023-02-17T21:31:58.199Z,102031.47
2023-02-17T21:34:26.673Z,102033.25
2023-02-17T21:36:54.902Z,102055.94
2023-02-17T21:39:23.675Z,102050.88
2023-02-17T21:41:53.981Z,102054.56
2023-02-17T21:44:41.032Z,102047.72
2023-02-17T21:47:09.392Z,102053.00
2023-02-17T21:49:38.167Z,102045.25
2023-02-17T21:52:07.280Z,102052.28
2023-02-17T21:54:35.926Z,102053.09
2023-02-17T21:57:04.583Z,102045.25
2023-02-17T21:59:34.289Z,102056.47
2023-02-17T22:02:02.607Z,102046.78
2023-02-17T22:04:31.234Z,102053.66
2023-02-17T22:06:59.655Z,102048.38
2023-02-17T22:09:27.901Z,102059.63
2023-02-17T22:11:56.778Z,102061.25
2023-02-17T22:14:25.048Z,102068.13
2023-02-17T22:16:54.801Z,102060.94
2023-02-17T22:19:25.866Z,102069.53
2023-02-17T22:21:54.286Z,102067.69
2023-02-17T22:24:22.806Z,102071.06
2023-02-17T22:26:51.719Z,102067.44
2023-02-17T22:29:20.131Z,102071.66
2023-02-17T22:31:50.379Z,102071.66
2023-02-17T22:34:20.238Z,102072.53
2023-02-17T22:36:48.646Z,102063.84
2023-02-17T22:39:17.473Z,102069.97
2023-02-17T22:41:47.040Z,102064.75
2023-02-17T22:44:15.433Z,102069.19
2023-02-17T22:46:43.754Z,102067.50
2023-02-17T22:49:12.126Z,102058.00
2023-02-17T22:51:42.118Z,102065.91
2023-02-17T22:54:11.100Z,102067.69
2023-02-17T22:56:40.397Z,102065.19
2023-02-17T22:59:08.973Z,102067.88
2023-02-17T23:01:38.587Z,102067.13
2023-02-17T23:04:07.540Z,102068.91
2023-02-17T23:06:38.526Z,102076.84
2023-02-17T23:09:13.058Z,102075.16
2023-02-17T23:11:53.799Z,102068.25
2023-02-17T23:14:27.664Z,102060.50
2023-02-17T23:16:59.701Z,102064.84
2023-02-17T23:19:28.688Z,102062.31
2023-02-17T23:22:00.478Z,102055.34
2023-02-17T23:24:30.247Z,102058.84
2023-02-17T23:27:00.915Z,102052.75
2023-02-17T23:29:30.801Z,102050.97
2023-02-17T23:31:59.590Z,102050.06
2023-02-17T23:34:29.982Z,102049.19
2023-02-17T23:36:58.801Z,102040.56
2023-02-17T23:39:28.833Z,102040.63
2023-02-17T23:41:57.301Z,102041.56
2023-02-17T23:44:25.794Z,102039.91
2023-02-17T23:46:54.070Z,102029.56
2023-02-17T23:49:22.296Z,102044.44
2023-02-17T23:51:50.717Z,102044.50
2023-02-17T23:54:19.056Z,102038.47
2023-02-17T23:56:48.761Z,102037.63
2023-02-17T23:59:17.146Z,102035.94
